sensor_id;sensor_type;location;lat;lon;timestamp;P1;durP1;ratioP1;P2;durP2;ratioP2
20629;SDS011;17386;43.846;25.950;2022-10-26T00:01:25;8.90;;;4.72;;
20629;SDS011;17386;43.846;25.950;2022-10-26T00:03:50;9.10;;;4.50;;
20629;SDS011;17386;43.846;25.950;2022-10-26T00:06:17;9.10;;;4.15;;
20629;SDS011;17386;43.846;25.950;2022-10-26T00:08:44;7.55;;;3.95;;
20629;SDS011;17386;43.846;25.950;2022-10-26T00:11:10;8.50;;;4.20;;
20629;SDS011;17386;43.846;25.950;2022-10-26T00:13:36;10.80;;;4.57;;
20629;SDS011;17386;43.846;25.950;2022-10-26T00:16:24;8.88;;;4.57;;
20629;SDS011;17386;43.846;25.950;2022-10-26T00:18:51;6.38;;;4.07;;
20629;SDS011;17386;43.846;25.950;2022-10-26T00:21:17;8.60;;;4.10;;
20629;SDS011;17386;43.846;25.950;2022-10-26T00:23:43;8.65;;;5.00;;
20629;SDS011;17386;43.846;25.950;2022-10-26T00:26:08;7.78;;;4.60;;
20629;SDS011;17386;43.846;25.950;2022-10-26T00:28:34;8.43;;;4.10;;
20629;SDS011;17386;43.846;25.950;2022-10-26T00:31:01;8.65;;;4.15;;
20629;SDS011;17386;43.846;25.950;2022-10-26T00:33:27;8.23;;;4.50;;
20629;SDS011;17386;43.846;25.950;2022-10-26T00:35:54;8.68;;;4.35;;
20629;SDS011;17386;43.846;25.950;2022-10-26T00:38:20;8.90;;;4.55;;
20629;SDS011;17386;43.846;25.950;2022-10-26T00:40:45;9.23;;;4.55;;
20629;SDS011;17386;43.846;25.950;2022-10-26T00:43:15;7.40;;;4.00;;
20629;SDS011;17386;43.846;25.950;2022-10-26T00:45:58;8.38;;;4.97;;
20629;SDS011;17386;43.846;25.950;2022-10-26T00:51:00;9.23;;;4.78;;
20629;SDS011;17386;43.846;25.950;2022-10-26T00:53:28;8.60;;;4.82;;
20629;SDS011;17386;43.846;25.950;2022-10-26T00:55:55;9.50;;;4.90;;
20629;SDS011;17386;43.846;25.950;2022-10-26T00:58:21;12.02;;;4.57;;
20629;SDS011;17386;43.846;25.950;2022-10-26T01:00:48;12.90;;;4.50;;
20629;SDS011;17386;43.846;25.950;2022-10-26T01:03:13;8.02;;;4.53;;
20629;SDS011;17386;43.846;25.950;2022-10-26T01:05:41;11.63;;;4.60;;
20629;SDS011;17386;43.846;25.950;2022-10-26T01:08:09;8.98;;;4.43;;
20629;SDS011;17386;43.846;25.950;2022-10-26T01:10:35;8.23;;;4.25;;
20629;SDS011;17386;43.846;25.950;2022-10-26T01:13:03;9.10;;;4.85;;
20629;SDS011;17386;43.846;25.950;2022-10-26T01:15:34;10.23;;;4.50;;
20629;SDS011;17386;43.846;25.950;2022-10-26T01:18:15;9.68;;;4.40;;
20629;SDS011;17386;43.846;25.950;2022-10-26T01:29:47;9.48;;;5.50;;
20629;SDS011;17386;43.846;25.950;2022-10-26T01:34:37;8.10;;;4.68;;
20629;SDS011;17386;43.846;25.950;2022-10-26T01:37:18;8.40;;;4.50;;
20629;SDS011;17386;43.846;25.950;2022-10-26T01:39:51;8.88;;;4.70;;
20629;SDS011;17386;43.846;25.950;2022-10-26T01:42:22;8.93;;;4.57;;
20629;SDS011;17386;43.846;25.950;2022-10-26T01:44:56;9.38;;;4.80;;
20629;SDS011;17386;43.846;25.950;2022-10-26T01:47:27;8.90;;;4.95;;
20629;SDS011;17386;43.846;25.950;2022-10-26T01:49:55;9.73;;;5.28;;
20629;SDS011;17386;43.846;25.950;2022-10-26T01:52:23;12.70;;;5.95;;
20629;SDS011;17386;43.846;25.950;2022-10-26T01:54:49;15.80;;;7.47;;
20629;SDS011;17386;43.846;25.950;2022-10-26T01:57:16;14.23;;;6.78;;
20629;SDS011;17386;43.846;25.950;2022-10-26T02:14:00;11.40;;;5.45;;
20629;SDS011;17386;43.846;25.950;2022-10-26T02:16:39;11.35;;;4.63;;
20629;SDS011;17386;43.846;25.950;2022-10-26T02:19:32;9.35;;;5.05;;
20629;SDS011;17386;43.846;25.950;2022-10-26T02:24:30;9.20;;;4.32;;
20629;SDS011;17386;43.846;25.950;2022-10-26T02:26:58;9.23;;;4.03;;
20629;SDS011;17386;43.846;25.950;2022-10-26T02:29:27;8.98;;;4.90;;
20629;SDS011;17386;43.846;25.950;2022-10-26T02:31:54;9.85;;;4.45;;
20629;SDS011;17386;43.846;25.950;2022-10-26T02:34:21;9.90;;;4.55;;
20629;SDS011;17386;43.846;25.950;2022-10-26T02:36:50;8.27;;;4.55;;
20629;SDS011;17386;43.846;25.950;2022-10-26T02:39:19;8.90;;;4.10;;
20629;SDS011;17386;43.846;25.950;2022-10-26T02:41:45;10.40;;;4.38;;
20629;SDS011;17386;43.846;25.950;2022-10-26T02:44:21;8.43;;;4.00;;
20629;SDS011;17386;43.846;25.950;2022-10-26T02:46:50;9.65;;;4.90;;
20629;SDS011;17386;43.846;25.950;2022-10-26T02:49:17;9.90;;;4.35;;
20629;SDS011;17386;43.846;25.950;2022-10-26T02:51:52;9.90;;;4.78;;
20629;SDS011;17386;43.846;25.950;2022-10-26T02:54:30;10.88;;;4.10;;
20629;SDS011;17386;43.846;25.950;2022-10-26T02:59:35;9.95;;;4.50;;
20629;SDS011;17386;43.846;25.950;2022-10-26T03:02:05;9.45;;;5.10;;
20629;SDS011;17386;43.846;25.950;2022-10-26T03:04:31;8.02;;;4.13;;
20629;SDS011;17386;43.846;25.950;2022-10-26T03:06:58;8.13;;;4.13;;
20629;SDS011;17386;43.846;25.950;2022-10-26T03:09:24;9.50;;;4.28;;
20629;SDS011;17386;43.846;25.950;2022-10-26T03:11:50;7.18;;;4.03;;
20629;SDS011;17386;43.846;25.950;2022-10-26T03:14:16;14.95;;;5.07;;
20629;SDS011;17386;43.846;25.950;2022-10-26T03:16:41;10.70;;;4.72;;
20629;SDS011;17386;43.846;25.950;2022-10-26T03:19:07;10.20;;;4.80;;
20629;SDS011;17386;43.846;25.950;2022-10-26T03:21:32;12.35;;;4.70;;
20629;SDS011;17386;43.846;25.950;2022-10-26T03:23:57;11.63;;;4.90;;
20629;SDS011;17386;43.846;25.950;2022-10-26T03:26:23;12.50;;;4.88;;
20629;SDS011;17386;43.846;25.950;2022-10-26T03:28:48;8.13;;;4.15;;
20629;SDS011;17386;43.846;25.950;2022-10-26T03:31:14;7.55;;;4.63;;
20629;SDS011;17386;43.846;25.950;2022-10-26T03:33:39;7.03;;;4.05;;
20629;SDS011;17386;43.846;25.950;2022-10-26T03:36:04;9.07;;;4.47;;
20629;SDS011;17386;43.846;25.950;2022-10-26T03:38:31;8.85;;;4.57;;
20629;SDS011;17386;43.846;25.950;2022-10-26T03:40:56;8.98;;;4.50;;
20629;SDS011;17386;43.846;25.950;2022-10-26T03:43:21;8.48;;;4.07;;
20629;SDS011;17386;43.846;25.950;2022-10-26T03:45:47;7.68;;;4.03;;
20629;SDS011;17386;43.846;25.950;2022-10-26T03:48:13;11.77;;;4.30;;
20629;SDS011;17386;43.846;25.950;2022-10-26T03:50:39;6.55;;;3.53;;
20629;SDS011;17386;43.846;25.950;2022-10-26T03:53:04;8.82;;;4.00;;
20629;SDS011;17386;43.846;25.950;2022-10-26T03:55:29;8.90;;;3.88;;
20629;SDS011;17386;43.846;25.950;2022-10-26T03:57:55;7.80;;;4.18;;
20629;SDS011;17386;43.846;25.950;2022-10-26T04:00:20;6.85;;;4.10;;
20629;SDS011;17386;43.846;25.950;2022-10-26T04:02:53;9.80;;;4.05;;
20629;SDS011;17386;43.846;25.950;2022-10-26T04:05:20;6.78;;;4.18;;
20629;SDS011;17386;43.846;25.950;2022-10-26T04:07:58;9.15;;;4.20;;
20629;SDS011;17386;43.846;25.950;2022-10-26T04:10:27;7.18;;;3.50;;
20629;SDS011;17386;43.846;25.950;2022-10-26T04:12:53;10.55;;;4.38;;
20629;SDS011;17386;43.846;25.950;2022-10-26T04:15:19;10.05;;;4.60;;
20629;SDS011;17386;43.846;25.950;2022-10-26T04:17:45;7.93;;;3.85;;
20629;SDS011;17386;43.846;25.950;2022-10-26T04:20:10;10.07;;;3.90;;
20629;SDS011;17386;43.846;25.950;2022-10-26T04:22:36;7.43;;;3.88;;
20629;SDS011;17386;43.846;25.950;2022-10-26T04:25:02;8.05;;;4.82;;
20629;SDS011;17386;43.846;25.950;2022-10-26T04:27:28;8.95;;;4.40;;
20629;SDS011;17386;43.846;25.950;2022-10-26T04:29:54;10.90;;;4.05;;
20629;SDS011;17386;43.846;25.950;2022-10-26T04:32:19;9.23;;;4.22;;
20629;SDS011;17386;43.846;25.950;2022-10-26T04:34:45;10.48;;;4.25;;
20629;SDS011;17386;43.846;25.950;2022-10-26T04:37:10;14.15;;;4.57;;
20629;SDS011;17386;43.846;25.950;2022-10-26T04:39:35;7.72;;;4.32;;
20629;SDS011;17386;43.846;25.950;2022-10-26T04:42:01;11.98;;;5.50;;
20629;SDS011;17386;43.846;25.950;2022-10-26T04:44:27;10.95;;;5.03;;
20629;SDS011;17386;43.846;25.950;2022-10-26T04:46:52;7.45;;;3.85;;
20629;SDS011;17386;43.846;25.950;2022-10-26T04:49:17;10.95;;;6.38;;
20629;SDS011;17386;43.846;25.950;2022-10-26T04:51:43;5.97;;;3.75;;
20629;SDS011;17386;43.846;25.950;2022-10-26T04:54:08;8.05;;;3.50;;
20629;SDS011;17386;43.846;25.950;2022-10-26T04:56:34;7.93;;;4.13;;
20629;SDS011;17386;43.846;25.950;2022-10-26T04:58:59;10.38;;;4.35;;
20629;SDS011;17386;43.846;25.950;2022-10-26T05:01:24;14.02;;;5.97;;
20629;SDS011;17386;43.846;25.950;2022-10-26T05:03:50;13.20;;;5.30;;
20629;SDS011;17386;43.846;25.950;2022-10-26T05:06:17;14.88;;;5.38;;
20629;SDS011;17386;43.846;25.950;2022-10-26T05:08:43;10.02;;;5.35;;
20629;SDS011;17386;43.846;25.950;2022-10-26T05:11:08;11.93;;;4.72;;
20629;SDS011;17386;43.846;25.950;2022-10-26T05:13:33;15.20;;;4.60;;
20629;SDS011;17386;43.846;25.950;2022-10-26T05:15:59;12.85;;;5.45;;
20629;SDS011;17386;43.846;25.950;2022-10-26T05:18:24;10.05;;;5.20;;
20629;SDS011;17386;43.846;25.950;2022-10-26T05:20:53;10.88;;;5.40;;
20629;SDS011;17386;43.846;25.950;2022-10-26T05:23:18;11.68;;;4.80;;
20629;SDS011;17386;43.846;25.950;2022-10-26T05:25:44;11.32;;;5.72;;
20629;SDS011;17386;43.846;25.950;2022-10-26T05:28:10;15.23;;;5.47;;
20629;SDS011;17386;43.846;25.950;2022-10-26T05:30:37;14.80;;;5.03;;
20629;SDS011;17386;43.846;25.950;2022-10-26T05:33:03;10.73;;;5.30;;
20629;SDS011;17386;43.846;25.950;2022-10-26T05:35:30;13.57;;;5.30;;
20629;SDS011;17386;43.846;25.950;2022-10-26T05:37:56;12.80;;;6.95;;
20629;SDS011;17386;43.846;25.950;2022-10-26T05:40:22;14.00;;;5.97;;
20629;SDS011;17386;43.846;25.950;2022-10-26T05:42:48;11.82;;;5.07;;
20629;SDS011;17386;43.846;25.950;2022-10-26T05:45:14;10.45;;;5.03;;
20629;SDS011;17386;43.846;25.950;2022-10-26T05:47:42;12.20;;;5.45;;
20629;SDS011;17386;43.846;25.950;2022-10-26T05:50:09;9.23;;;4.78;;
20629;SDS011;17386;43.846;25.950;2022-10-26T05:52:42;10.90;;;4.85;;
20629;SDS011;17386;43.846;25.950;2022-10-26T05:55:10;9.85;;;4.32;;
20629;SDS011;17386;43.846;25.950;2022-10-26T05:57:40;10.13;;;4.57;;
20629;SDS011;17386;43.846;25.950;2022-10-26T06:00:07;9.35;;;4.25;;
20629;SDS011;17386;43.846;25.950;2022-10-26T06:05:25;9.82;;;5.03;;
20629;SDS011;17386;43.846;25.950;2022-10-26T06:07:53;10.80;;;4.57;;
20629;SDS011;17386;43.846;25.950;2022-10-26T06:10:18;10.30;;;4.70;;
20629;SDS011;17386;43.846;25.950;2022-10-26T06:12:44;9.52;;;4.85;;
20629;SDS011;17386;43.846;25.950;2022-10-26T06:15:15;8.27;;;4.78;;
20629;SDS011;17386;43.846;25.950;2022-10-26T06:17:50;9.80;;;4.10;;
20629;SDS011;17386;43.846;25.950;2022-10-26T06:26:12;11.48;;;4.75;;
20629;SDS011;17386;43.846;25.950;2022-10-26T06:28:54;8.25;;;4.15;;
20629;SDS011;17386;43.846;25.950;2022-10-26T06:31:37;11.30;;;4.40;;
20629;SDS011;17386;43.846;25.950;2022-10-26T06:34:02;8.90;;;4.68;;
20629;SDS011;17386;43.846;25.950;2022-10-26T06:36:28;22.13;;;4.88;;
20629;SDS011;17386;43.846;25.950;2022-10-26T06:39:02;8.90;;;4.25;;
20629;SDS011;17386;43.846;25.950;2022-10-26T06:41:30;8.70;;;4.70;;
20629;SDS011;17386;43.846;25.950;2022-10-26T06:43:57;11.52;;;4.20;;
20629;SDS011;17386;43.846;25.950;2022-10-26T06:46:40;8.30;;;3.78;;
20629;SDS011;17386;43.846;25.950;2022-10-26T06:57:11;8.13;;;3.42;;
20629;SDS011;17386;43.846;25.950;2022-10-26T07:02:25;8.88;;;3.90;;
20629;SDS011;17386;43.846;25.950;2022-10-26T07:04:51;8.05;;;4.03;;
20629;SDS011;17386;43.846;25.950;2022-10-26T07:07:17;7.05;;;3.70;;
20629;SDS011;17386;43.846;25.950;2022-10-26T07:09:44;6.82;;;3.50;;
20629;SDS011;17386;43.846;25.950;2022-10-26T07:12:10;7.10;;;3.50;;
20629;SDS011;17386;43.846;25.950;2022-10-26T07:14:35;6.82;;;3.63;;
20629;SDS011;17386;43.846;25.950;2022-10-26T07:17:01;8.35;;;3.92;;
20629;SDS011;17386;43.846;25.950;2022-10-26T07:19:27;8.82;;;3.55;;
20629;SDS011;17386;43.846;25.950;2022-10-26T07:21:53;7.65;;;4.38;;
20629;SDS011;17386;43.846;25.950;2022-10-26T07:24:20;7.57;;;4.28;;
20629;SDS011;17386;43.846;25.950;2022-10-26T07:26:47;7.32;;;4.00;;
20629;SDS011;17386;43.846;25.950;2022-10-26T07:29:12;8.32;;;3.78;;
20629;SDS011;17386;43.846;25.950;2022-10-26T07:31:40;6.50;;;4.10;;
20629;SDS011;17386;43.846;25.950;2022-10-26T07:34:07;6.90;;;4.00;;
20629;SDS011;17386;43.846;25.950;2022-10-26T07:36:32;7.95;;;4.05;;
20629;SDS011;17386;43.846;25.950;2022-10-26T07:39:00;11.07;;;5.18;;
20629;SDS011;17386;43.846;25.950;2022-10-26T07:41:26;10.38;;;4.00;;
20629;SDS011;17386;43.846;25.950;2022-10-26T07:43:52;7.95;;;3.53;;
20629;SDS011;17386;43.846;25.950;2022-10-26T07:46:17;6.63;;;3.47;;
20629;SDS011;17386;43.846;25.950;2022-10-26T07:48:43;7.05;;;4.00;;
20629;SDS011;17386;43.846;25.950;2022-10-26T07:51:08;6.43;;;3.50;;
20629;SDS011;17386;43.846;25.950;2022-10-26T07:53:34;8.90;;;4.03;;
20629;SDS011;17386;43.846;25.950;2022-10-26T07:55:59;9.05;;;4.47;;
20629;SDS011;17386;43.846;25.950;2022-10-26T07:58:24;8.00;;;3.85;;
20629;SDS011;17386;43.846;25.950;2022-10-26T08:00:51;12.63;;;4.60;;
20629;SDS011;17386;43.846;25.950;2022-10-26T08:03:18;7.03;;;3.70;;
20629;SDS011;17386;43.846;25.950;2022-10-26T08:05:47;8.27;;;4.30;;
20629;SDS011;17386;43.846;25.950;2022-10-26T08:08:15;7.18;;;3.78;;
20629;SDS011;17386;43.846;25.950;2022-10-26T08:10:42;10.00;;;4.13;;
20629;SDS011;17386;43.846;25.950;2022-10-26T08:13:09;11.95;;;4.75;;
20629;SDS011;17386;43.846;25.950;2022-10-26T08:15:35;9.15;;;3.80;;
20629;SDS011;17386;43.846;25.950;2022-10-26T08:18:01;7.35;;;4.18;;
20629;SDS011;17386;43.846;25.950;2022-10-26T08:20:26;8.65;;;4.60;;
20629;SDS011;17386;43.846;25.950;2022-10-26T08:22:51;7.60;;;4.65;;
20629;SDS011;17386;43.846;25.950;2022-10-26T08:25:20;10.73;;;4.57;;
20629;SDS011;17386;43.846;25.950;2022-10-26T08:27:46;6.88;;;3.58;;
20629;SDS011;17386;43.846;25.950;2022-10-26T08:30:11;11.75;;;5.30;;
20629;SDS011;17386;43.846;25.950;2022-10-26T08:32:37;10.32;;;4.80;;
20629;SDS011;17386;43.846;25.950;2022-10-26T08:35:02;11.55;;;5.68;;
20629;SDS011;17386;43.846;25.950;2022-10-26T08:37:28;11.07;;;5.78;;
20629;SDS011;17386;43.846;25.950;2022-10-26T08:39:53;9.75;;;4.32;;
20629;SDS011;17386;43.846;25.950;2022-10-26T08:42:21;9.65;;;3.60;;
20629;SDS011;17386;43.846;25.950;2022-10-26T08:44:55;5.95;;;3.70;;
20629;SDS011;17386;43.846;25.950;2022-10-26T08:47:44;10.98;;;5.55;;
20629;SDS011;17386;43.846;25.950;2022-10-26T08:50:17;15.27;;;6.63;;
20629;SDS011;17386;43.846;25.950;2022-10-26T08:53:08;11.85;;;6.82;;
20629;SDS011;17386;43.846;25.950;2022-10-26T08:55:47;6.78;;;3.72;;
20629;SDS011;17386;43.846;25.950;2022-10-26T08:58:19;7.43;;;3.70;;
20629;SDS011;17386;43.846;25.950;2022-10-26T09:00:49;8.60;;;4.20;;
20629;SDS011;17386;43.846;25.950;2022-10-26T09:03:16;10.38;;;3.97;;
20629;SDS011;17386;43.846;25.950;2022-10-26T09:11:39;8.10;;;4.20;;
20629;SDS011;17386;43.846;25.950;2022-10-26T09:14:08;11.13;;;6.07;;
20629;SDS011;17386;43.846;25.950;2022-10-26T09:22:24;8.18;;;3.40;;
20629;SDS011;17386;43.846;25.950;2022-10-26T09:24:57;7.90;;;4.90;;
20629;SDS011;17386;43.846;25.950;2022-10-26T09:27:28;6.63;;;3.75;;
20629;SDS011;17386;43.846;25.950;2022-10-26T09:29:59;8.43;;;3.25;;
20629;SDS011;17386;43.846;25.950;2022-10-26T09:32:38;8.95;;;4.95;;
20629;SDS011;17386;43.846;25.950;2022-10-26T09:35:16;5.88;;;3.35;;
20629;SDS011;17386;43.846;25.950;2022-10-26T09:37:56;6.18;;;3.35;;
20629;SDS011;17386;43.846;25.950;2022-10-26T09:40:45;8.65;;;3.95;;
20629;SDS011;17386;43.846;25.950;2022-10-26T09:45:57;4.65;;;3.33;;
20629;SDS011;17386;43.846;25.950;2022-10-26T09:50:56;7.68;;;3.28;;
20629;SDS011;17386;43.846;25.950;2022-10-26T09:55:58;7.50;;;4.10;;
20629;SDS011;17386;43.846;25.950;2022-10-26T09:58:35;6.50;;;3.25;;
20629;SDS011;17386;43.846;25.950;2022-10-26T10:06:34;5.63;;;3.30;;
20629;SDS011;17386;43.846;25.950;2022-10-26T10:09:10;6.85;;;3.25;;
20629;SDS011;17386;43.846;25.950;2022-10-26T10:14:05;6.45;;;3.13;;
20629;SDS011;17386;43.846;25.950;2022-10-26T10:16:33;4.70;;;2.97;;
20629;SDS011;17386;43.846;25.950;2022-10-26T10:18:59;5.50;;;2.92;;
20629;SDS011;17386;43.846;25.950;2022-10-26T10:21:35;6.35;;;3.83;;
20629;SDS011;17386;43.846;25.950;2022-10-26T10:24:02;6.18;;;2.92;;
20629;SDS011;17386;43.846;25.950;2022-10-26T10:27:32;7.68;;;3.75;;
20629;SDS011;17386;43.846;25.950;2022-10-26T10:32:18;7.65;;;4.75;;
20629;SDS011;17386;43.846;25.950;2022-10-26T10:34:51;8.77;;;5.40;;
20629;SDS011;17386;43.846;25.950;2022-10-26T10:39:49;4.60;;;2.78;;
20629;SDS011;17386;43.846;25.950;2022-10-26T10:42:21;5.63;;;3.42;;
20629;SDS011;17386;43.846;25.950;2022-10-26T10:44:51;6.25;;;2.65;;
20629;SDS011;17386;43.846;25.950;2022-10-26T10:47:21;5.78;;;3.15;;
20629;SDS011;17386;43.846;25.950;2022-10-26T10:49:53;9.18;;;3.20;;
20629;SDS011;17386;43.846;25.950;2022-10-26T10:52:27;5.05;;;2.88;;
20629;SDS011;17386;43.846;25.950;2022-10-26T10:54:59;5.25;;;3.28;;
20629;SDS011;17386;43.846;25.950;2022-10-26T11:00:12;9.55;;;3.70;;
20629;SDS011;17386;43.846;25.950;2022-10-26T11:03:23;8.90;;;4.85;;
20629;SDS011;17386;43.846;25.950;2022-10-26T11:16:32;6.32;;;3.53;;
20629;SDS011;17386;43.846;25.950;2022-10-26T11:21:30;8.73;;;3.10;;
20629;SDS011;17386;43.846;25.950;2022-10-26T11:29:37;8.25;;;3.55;;
20629;SDS011;17386;43.846;25.950;2022-10-26T11:32:21;8.45;;;3.42;;
20629;SDS011;17386;43.846;25.950;2022-10-26T11:34:52;7.65;;;3.60;;
20629;SDS011;17386;43.846;25.950;2022-10-26T11:37:26;7.28;;;3.20;;
20629;SDS011;17386;43.846;25.950;2022-10-26T11:40:00;8.60;;;4.85;;
20629;SDS011;17386;43.846;25.950;2022-10-26T11:42:49;5.82;;;2.80;;
20629;SDS011;17386;43.846;25.950;2022-10-26T11:45:25;4.50;;;2.42;;
20629;SDS011;17386;43.846;25.950;2022-10-26T11:50:39;4.45;;;2.75;;
20629;SDS011;17386;43.846;25.950;2022-10-26T11:53:10;4.47;;;2.40;;
20629;SDS011;17386;43.846;25.950;2022-10-26T11:55:41;4.65;;;2.55;;
20629;SDS011;17386;43.846;25.950;2022-10-26T11:58:12;3.95;;;2.40;;
20629;SDS011;17386;43.846;25.950;2022-10-26T12:00:49;5.50;;;2.72;;
20629;SDS011;17386;43.846;25.950;2022-10-26T12:03:26;5.30;;;2.80;;
20629;SDS011;17386;43.846;25.950;2022-10-26T12:05:53;6.07;;;2.53;;
20629;SDS011;17386;43.846;25.950;2022-10-26T12:08:26;6.93;;;2.80;;
20629;SDS011;17386;43.846;25.950;2022-10-26T12:21:45;5.88;;;3.05;;
20629;SDS011;17386;43.846;25.950;2022-10-26T12:26:49;5.03;;;2.80;;
20629;SDS011;17386;43.846;25.950;2022-10-26T12:31:49;8.90;;;3.33;;
20629;SDS011;17386;43.846;25.950;2022-10-26T12:34:55;8.07;;;4.25;;
20629;SDS011;17386;43.846;25.950;2022-10-26T12:37:23;9.25;;;4.60;;
20629;SDS011;17386;43.846;25.950;2022-10-26T12:42:57;8.35;;;3.90;;
20629;SDS011;17386;43.846;25.950;2022-10-26T12:45:46;4.90;;;2.88;;
20629;SDS011;17386;43.846;25.950;2022-10-26T12:48:47;7.63;;;3.40;;
20629;SDS011;17386;43.846;25.950;2022-10-26T12:53:50;8.05;;;3.30;;
20629;SDS011;17386;43.846;25.950;2022-10-26T12:59:27;7.50;;;2.85;;
20629;SDS011;17386;43.846;25.950;2022-10-26T13:08:03;6.80;;;3.13;;
20629;SDS011;17386;43.846;25.950;2022-10-26T13:10:32;9.10;;;3.50;;
20629;SDS011;17386;43.846;25.950;2022-10-26T13:12:59;7.25;;;3.60;;
20629;SDS011;17386;43.846;25.950;2022-10-26T13:18:11;5.97;;;3.20;;
20629;SDS011;17386;43.846;25.950;2022-10-26T13:23:26;11.57;;;3.50;;
20629;SDS011;17386;43.846;25.950;2022-10-26T13:28:42;6.57;;;3.70;;
20629;SDS011;17386;43.846;25.950;2022-10-26T13:33:49;4.15;;;2.75;;
20629;SDS011;17386;43.846;25.950;2022-10-26T13:39:08;6.57;;;2.97;;
20629;SDS011;17386;43.846;25.950;2022-10-26T13:41:42;7.55;;;3.20;;
20629;SDS011;17386;43.846;25.950;2022-10-26T13:44:16;8.68;;;4.63;;
20629;SDS011;17386;43.846;25.950;2022-10-26T13:46:47;4.85;;;3.10;;
20629;SDS011;17386;43.846;25.950;2022-10-26T13:49:23;7.05;;;3.33;;
20629;SDS011;17386;43.846;25.950;2022-10-26T13:51:53;7.53;;;4.32;;
20629;SDS011;17386;43.846;25.950;2022-10-26T13:54:29;6.57;;;3.53;;
20629;SDS011;17386;43.846;25.950;2022-10-26T13:59:45;8.18;;;4.57;;
20629;SDS011;17386;43.846;25.950;2022-10-26T14:04:45;5.22;;;2.88;;
20629;SDS011;17386;43.846;25.950;2022-10-26T14:07:25;12.73;;;4.97;;
20629;SDS011;17386;43.846;25.950;2022-10-26T14:12:53;7.15;;;2.70;;
20629;SDS011;17386;43.846;25.950;2022-10-26T14:15:29;6.55;;;2.80;;
20629;SDS011;17386;43.846;25.950;2022-10-26T14:17:57;8.27;;;2.50;;
20629;SDS011;17386;43.846;25.950;2022-10-26T14:20:25;5.20;;;2.85;;
20629;SDS011;17386;43.846;25.950;2022-10-26T14:22:52;9.45;;;3.22;;
20629;SDS011;17386;43.846;25.950;2022-10-26T14:25:19;6.60;;;2.70;;
20629;SDS011;17386;43.846;25.950;2022-10-26T14:27:47;4.07;;;2.65;;
20629;SDS011;17386;43.846;25.950;2022-10-26T14:30:26;5.90;;;2.97;;
20629;SDS011;17386;43.846;25.950;2022-10-26T14:32:53;9.50;;;4.03;;
20629;SDS011;17386;43.846;25.950;2022-10-26T14:35:27;8.20;;;3.45;;
20629;SDS011;17386;43.846;25.950;2022-10-26T14:37:57;10.68;;;3.67;;
20629;SDS011;17386;43.846;25.950;2022-10-26T14:40:27;6.57;;;3.40;;
20629;SDS011;17386;43.846;25.950;2022-10-26T14:42:55;11.60;;;5.10;;
20629;SDS011;17386;43.846;25.950;2022-10-26T14:47:51;14.48;;;6.70;;
20629;SDS011;17386;43.846;25.950;2022-10-26T14:50:21;13.30;;;6.53;;
20629;SDS011;17386;43.846;25.950;2022-10-26T14:52:49;11.77;;;6.57;;
20629;SDS011;17386;43.846;25.950;2022-10-26T14:55:17;16.88;;;7.80;;
20629;SDS011;17386;43.846;25.950;2022-10-26T14:57:44;21.88;;;7.70;;
20629;SDS011;17386;43.846;25.950;2022-10-26T15:02:39;20.23;;;9.35;;
20629;SDS011;17386;43.846;25.950;2022-10-26T15:07:50;28.98;;;10.77;;
20629;SDS011;17386;43.846;25.950;2022-10-26T15:15:43;31.60;;;12.13;;
20629;SDS011;17386;43.846;25.950;2022-10-26T15:18:16;30.73;;;13.00;;
20629;SDS011;17386;43.846;25.950;2022-10-26T15:20:49;35.53;;;12.30;;
20629;SDS011;17386;43.846;25.950;2022-10-26T15:23:16;28.38;;;10.90;;
20629;SDS011;17386;43.846;25.950;2022-10-26T15:25:51;27.40;;;10.98;;
20629;SDS011;17386;43.846;25.950;2022-10-26T15:28:20;27.92;;;10.73;;
20629;SDS011;17386;43.846;25.950;2022-10-26T15:31:01;32.58;;;10.60;;
20629;SDS011;17386;43.846;25.950;2022-10-26T15:38:48;23.55;;;8.65;;
20629;SDS011;17386;43.846;25.950;2022-10-26T15:41:28;23.45;;;8.90;;
20629;SDS011;17386;43.846;25.950;2022-10-26T15:43:57;19.83;;;8.75;;
20629;SDS011;17386;43.846;25.950;2022-10-26T15:46:27;24.60;;;8.63;;
20629;SDS011;17386;43.846;25.950;2022-10-26T15:48:54;20.40;;;8.95;;
20629;SDS011;17386;43.846;25.950;2022-10-26T15:51:22;20.00;;;9.02;;
20629;SDS011;17386;43.846;25.950;2022-10-26T15:53:47;26.20;;;9.43;;
20629;SDS011;17386;43.846;25.950;2022-10-26T15:56:16;19.92;;;9.25;;
20629;SDS011;17386;43.846;25.950;2022-10-26T15:58:44;45.08;;;21.60;;
20629;SDS011;17386;43.846;25.950;2022-10-26T16:01:17;36.35;;;12.57;;
20629;SDS011;17386;43.846;25.950;2022-10-26T16:03:44;21.17;;;12.45;;
20629;SDS011;17386;43.846;25.950;2022-10-26T16:06:43;28.92;;;11.60;;
20629;SDS011;17386;43.846;25.950;2022-10-26T16:09:04;31.00;;;10.35;;
20629;SDS011;17386;43.846;25.950;2022-10-26T16:11:33;29.55;;;10.95;;
20629;SDS011;17386;43.846;25.950;2022-10-26T16:13:59;29.38;;;11.25;;
20629;SDS011;17386;43.846;25.950;2022-10-26T16:16:24;27.38;;;11.30;;
20629;SDS011;17386;43.846;25.950;2022-10-26T16:18:53;28.20;;;13.23;;
20629;SDS011;17386;43.846;25.950;2022-10-26T16:21:20;33.55;;;14.85;;
20629;SDS011;17386;43.846;25.950;2022-10-26T16:23:48;39.60;;;15.00;;
20629;SDS011;17386;43.846;25.950;2022-10-26T16:26:17;29.77;;;14.32;;
20629;SDS011;17386;43.846;25.950;2022-10-26T16:28:44;35.38;;;13.90;;
20629;SDS011;17386;43.846;25.950;2022-10-26T16:31:10;29.48;;;13.52;;
20629;SDS011;17386;43.846;25.950;2022-10-26T16:33:38;40.45;;;13.30;;
20629;SDS011;17386;43.846;25.950;2022-10-26T16:36:03;31.20;;;12.43;;
20629;SDS011;17386;43.846;25.950;2022-10-26T16:38:30;31.83;;;12.35;;
20629;SDS011;17386;43.846;25.950;2022-10-26T16:41:03;34.08;;;12.65;;
20629;SDS011;17386;43.846;25.950;2022-10-26T16:43:34;32.53;;;15.38;;
20629;SDS011;17386;43.846;25.950;2022-10-26T16:46:19;35.15;;;14.13;;
20629;SDS011;17386;43.846;25.950;2022-10-26T16:48:46;28.77;;;12.55;;
20629;SDS011;17386;43.846;25.950;2022-10-26T16:51:14;29.02;;;12.95;;
20629;SDS011;17386;43.846;25.950;2022-10-26T16:53:41;31.73;;;14.60;;
20629;SDS011;17386;43.846;25.950;2022-10-26T16:56:08;33.63;;;14.43;;
20629;SDS011;17386;43.846;25.950;2022-10-26T16:58:36;40.42;;;16.23;;
20629;SDS011;17386;43.846;25.950;2022-10-26T17:01:04;30.70;;;17.05;;
20629;SDS011;17386;43.846;25.950;2022-10-26T17:03:30;36.03;;;17.23;;
20629;SDS011;17386;43.846;25.950;2022-10-26T17:05:56;32.90;;;17.38;;
20629;SDS011;17386;43.846;25.950;2022-10-26T17:08:23;38.15;;;17.15;;
20629;SDS011;17386;43.846;25.950;2022-10-26T17:10:49;34.33;;;17.60;;
20629;SDS011;17386;43.846;25.950;2022-10-26T17:13:15;38.08;;;17.38;;
20629;SDS011;17386;43.846;25.950;2022-10-26T17:15:40;38.65;;;16.27;;
20629;SDS011;17386;43.846;25.950;2022-10-26T17:18:05;35.28;;;16.88;;
20629;SDS011;17386;43.846;25.950;2022-10-26T17:20:33;36.00;;;16.13;;
20629;SDS011;17386;43.846;25.950;2022-10-26T17:22:58;36.78;;;14.98;;
20629;SDS011;17386;43.846;25.950;2022-10-26T17:25:24;34.40;;;16.00;;
20629;SDS011;17386;43.846;25.950;2022-10-26T17:27:49;38.42;;;15.95;;
20629;SDS011;17386;43.846;25.950;2022-10-26T17:30:15;36.13;;;16.02;;
20629;SDS011;17386;43.846;25.950;2022-10-26T17:32:40;42.15;;;15.93;;
20629;SDS011;17386;43.846;25.950;2022-10-26T17:35:06;40.92;;;17.88;;
20629;SDS011;17386;43.846;25.950;2022-10-26T17:37:32;39.42;;;17.02;;
20629;SDS011;17386;43.846;25.950;2022-10-26T17:39:58;35.63;;;16.98;;
20629;SDS011;17386;43.846;25.950;2022-10-26T17:42:23;41.80;;;16.45;;